createdAt,value
2023-01-28T00:01:41.987Z,4.00
2023-01-28T00:04:08.348Z,6.82
2023-01-28T00:06:35.672Z,1.15
2023-01-28T00:09:02.226Z,3.88
2023-01-28T00:11:28.735Z,4.57
2023-01-28T00:13:55.421Z,3.97
2023-01-28T00:16:27.344Z,2.17
2023-01-28T00:18:55.386Z,3.50
2023-01-28T00:21:21.823Z,1.45
2023-01-28T00:23:52.647Z,2.35
2023-01-28T00:26:19.281Z,2.60
2023-01-28T00:28:57.619Z,4.25
2023-01-28T00:31:27.645Z,3.65
2023-01-28T00:33:56.105Z,1.60
2023-01-28T00:36:24.346Z,6.10
2023-01-28T00:38:53.051Z,0.82
2023-01-28T00:41:23.019Z,2.63
2023-01-28T00:43:53.515Z,2.78
2023-01-28T00:46:21.279Z,4.38
2023-01-28T00:48:48.118Z,8.02
2023-01-28T00:51:17.254Z,2.15
2023-01-28T00:53:44.746Z,1.75
2023-01-28T00:56:16.446Z,2.85
2023-01-28T00:58:45.973Z,1.33
2023-01-28T01:01:13.814Z,3.60
2023-01-28T01:03:42.614Z,2.95
2023-01-28T01:06:09.961Z,5.18
2023-01-28T01:08:39.852Z,1.25
2023-01-28T01:11:07.393Z,3.40
2023-01-28T01:13:34.781Z,1.98
2023-01-28T01:16:09.653Z,3.58
2023-01-28T01:18:36.779Z,2.00
2023-01-28T01:21:04.055Z,1.10
2023-01-28T01:23:32.204Z,9.55
2023-01-28T01:25:58.933Z,1.23
2023-01-28T01:28:25.414Z,4.57
2023-01-28T01:30:59.076Z,6.85
2023-01-28T01:33:28.110Z,5.68
2023-01-28T01:35:54.992Z,4.93
2023-01-28T01:38:27.162Z,0.82
2023-01-28T01:40:56.561Z,2.88
2023-01-28T01:43:23.935Z,3.28
2023-01-28T01:45:53.125Z,0.93
2023-01-28T01:48:22.846Z,6.28
2023-01-28T01:50:59.388Z,5.47
2023-01-28T01:53:28.170Z,4.25
2023-01-28T01:55:56.743Z,2.15
2023-01-28T01:58:26.036Z,2.67
2023-01-28T02:00:54.127Z,4.95
2023-01-28T02:03:23.850Z,2.58
2023-01-28T02:05:51.013Z,4.22
2023-01-28T02:08:21.612Z,3.55
2023-01-28T02:11:01.245Z,4.80
2023-01-28T02:13:30.388Z,3.08
2023-01-28T02:16:00.861Z,4.20
2023-01-28T02:18:27.430Z,1.80
2023-01-28T02:21:03.817Z,5.13
2023-01-28T02:23:40.114Z,3.15
2023-01-28T02:26:25.169Z,7.30
2023-01-28T02:29:02.515Z,3.60
2023-01-28T02:31:32.122Z,6.45
2023-01-28T02:34:02.925Z,3.30
2023-01-28T02:36:34.006Z,3.03
2023-01-28T02:39:03.619Z,5.30
2023-01-28T02:41:33.280Z,5.13
2023-01-28T02:44:02.175Z,1.70
2023-01-28T02:46:48.521Z,2.28
2023-01-28T02:49:17.991Z,5.28
2023-01-28T02:52:00.298Z,2.92
2023-01-28T02:54:34.037Z,1.13
2023-01-28T02:57:22.339Z,6.07
2023-01-28T02:59:57.895Z,2.83
2023-01-28T03:02:30.079Z,9.45
2023-01-28T03:05:00.156Z,5.32
2023-01-28T03:07:29.723Z,3.28
2023-01-28T03:09:59.630Z,5.00
2023-01-28T03:12:48.924Z,3.95
2023-01-28T03:15:45.157Z,3.25
2023-01-28T03:18:49.073Z,3.45
2023-01-28T03:21:39.282Z,3.30
2023-01-28T03:24:35.528Z,4.47
2023-01-28T03:27:45.574Z,4.95
2023-01-28T03:30:35.981Z,4.45
2023-01-28T03:36:12.649Z,2.72
2023-01-28T03:38:48.820Z,5.18
2023-01-28T03:41:24.437Z,5.82
2023-01-28T03:43:53.552Z,6.07
2023-01-28T03:46:20.377Z,4.03
2023-01-28T03:48:48.140Z,1.13
2023-01-28T03:51:16.632Z,2.78
2023-01-28T03:53:43.391Z,9.98
2023-01-28T03:56:18.320Z,1.45
2023-01-28T03:58:56.581Z,3.88
2023-01-28T04:01:26.169Z,5.90
2023-01-28T04:03:53.021Z,9.40
2023-01-28T04:06:26.547Z,3.70
2023-01-28T04:08:53.391Z,3.92
2023-01-28T04:11:40.092Z,3.45
2023-01-28T04:14:08.448Z,7.30
2023-01-28T04:16:55.299Z,7.28
2023-01-28T04:19:25.657Z,4.20
2023-01-28T04:21:56.683Z,5.47
2023-01-28T04:24:24.884Z,4.07
2023-01-28T04:26:59.319Z,5.55
2023-01-28T04:29:25.801Z,7.10
2023-01-28T04:31:54.781Z,12.45
2023-01-28T04:34:33.759Z,17.30
2023-01-28T04:37:26.777Z,2.53
2023-01-28T04:40:08.993Z,4.40
2023-01-28T04:42:41.637Z,2.67
2023-01-28T04:45:33.529Z,6.20
2023-01-28T04:48:21.713Z,5.65
2023-01-28T04:51:11.078Z,6.25
2023-01-28T04:53:45.244Z,5.25
2023-01-28T04:56:30.378Z,2.95
2023-01-28T04:59:01.246Z,4.13
2023-01-28T05:01:29.957Z,4.80
2023-01-28T05:03:57.289Z,3.13
2023-01-28T05:06:26.700Z,5.43
2023-01-28T05:08:56.028Z,4.90
2023-01-28T05:11:22.931Z,3.92
2023-01-28T05:13:54.664Z,6.20
2023-01-28T05:16:21.597Z,4.57
2023-01-28T05:18:48.377Z,4.07
2023-01-28T05:21:21.791Z,4.95
2023-01-28T05:23:53.949Z,2.85
2023-01-28T05:26:21.181Z,6.07
2023-01-28T05:28:49.022Z,6.40
2023-01-28T05:31:16.642Z,3.65
2023-01-28T05:33:43.027Z,7.18
2023-01-28T05:36:13.820Z,4.97
2023-01-28T05:38:43.164Z,4.93
2023-01-28T05:41:09.598Z,6.43
2023-01-28T05:43:36.971Z,6.30
2023-01-28T05:46:09.538Z,5.32
2023-01-28T05:48:55.922Z,3.75
2023-01-28T05:51:41.238Z,4.35
2023-01-28T05:54:10.016Z,3.55
2023-01-28T05:56:37.109Z,7.70
2023-01-28T05:59:11.249Z,5.05
2023-01-28T06:01:42.076Z,4.45
2023-01-28T06:04:09.024Z,6.38
2023-01-28T06:06:35.451Z,4.47
2023-01-28T06:09:04.997Z,12.05
2023-01-28T06:11:33.009Z,3.53
2023-01-28T06:14:04.200Z,9.25
2023-01-28T06:16:47.997Z,5.45
2023-01-28T06:19:35.868Z,3.90
2023-01-28T06:22:04.299Z,5.80
2023-01-28T06:24:35.580Z,5.85
2023-01-28T06:27:02.567Z,4.47
2023-01-28T06:29:32.609Z,6.53
2023-01-28T06:32:01.436Z,9.65
2023-01-28T06:34:29.236Z,7.75
2023-01-28T06:36:55.693Z,8.93
2023-01-28T06:39:30.436Z,5.60
2023-01-28T06:41:57.415Z,9.27
2023-01-28T06:44:23.949Z,5.72
2023-01-28T06:46:50.326Z,6.20
2023-01-28T06:49:17.129Z,7.63
2023-01-28T06:51:43.702Z,5.05
2023-01-28T06:54:10.116Z,12.57
2023-01-28T06:56:37.794Z,8.73
2023-01-28T06:59:04.288Z,8.15
2023-01-28T07:01:31.221Z,10.82
2023-01-28T07:03:57.724Z,8.23
2023-01-28T07:06:24.244Z,8.02
2023-01-28T07:08:51.011Z,7.35
2023-01-28T07:11:17.547Z,9.45
2023-01-28T07:13:46.001Z,5.22
2023-01-28T07:16:12.472Z,10.23
2023-01-28T07:18:38.923Z,7.35
2023-01-28T07:21:05.463Z,8.88
2023-01-28T07:23:32.367Z,6.53
2023-01-28T07:26:05.208Z,8.35
2023-01-28T07:28:32.642Z,8.20
2023-01-28T07:30:59.035Z,8.30
2023-01-28T07:33:29.911Z,11.25
2023-01-28T07:35:56.670Z,10.95
2023-01-28T07:38:23.101Z,10.50
2023-01-28T07:40:51.475Z,7.20
2023-01-28T07:43:18.121Z,14.38
2023-01-28T07:45:48.261Z,15.43
2023-01-28T07:48:15.167Z,13.43
2023-01-28T07:50:41.828Z,8.95
2023-01-28T07:53:11.696Z,11.25
2023-01-28T07:55:42.275Z,10.05
2023-01-28T07:58:11.396Z,17.02
2023-01-28T08:00:38.929Z,10.68
2023-01-28T08:03:06.995Z,10.10
2023-01-28T08:05:39.378Z,13.50
2023-01-28T08:08:08.415Z,12.60
2023-01-28T08:10:35.097Z,14.73
2023-01-28T08:13:02.033Z,13.18
2023-01-28T08:15:28.962Z,19.73
2023-01-28T08:17:58.773Z,10.88
2023-01-28T08:20:27.708Z,11.77
2023-01-28T08:23:04.256Z,10.77
2023-01-28T08:27:58.203Z,13.90
2023-01-28T08:30:24.646Z,11.77
2023-01-28T08:32:51.085Z,9.63
2023-01-28T08:35:17.494Z,15.57
2023-01-28T08:37:46.429Z,11.20
2023-01-28T08:40:12.804Z,9.60
2023-01-28T08:42:39.837Z,10.15
2023-01-28T08:45:07.405Z,16.38
2023-01-28T08:47:34.529Z,12.05
2023-01-28T08:50:01.125Z,12.23
2023-01-28T08:52:27.924Z,12.05
2023-01-28T08:54:56.840Z,13.93
2023-01-28T08:57:26.650Z,9.50
2023-01-28T08:59:54.230Z,6.85
2023-01-28T09:02:31.159Z,13.25
2023-01-28T09:04:58.769Z,10.77
2023-01-28T09:07:26.365Z,10.60
2023-01-28T09:09:54.424Z,12.27
2023-01-28T09:12:21.184Z,11.68
2023-01-28T09:14:47.665Z,9.90
2023-01-28T09:17:16.421Z,10.02
2023-01-28T09:19:42.796Z,10.80
2023-01-28T09:22:12.613Z,11.55
2023-01-28T09:24:39.603Z,8.73
2023-01-28T09:27:06.550Z,10.80
2023-01-28T09:29:40.136Z,10.85
2023-01-28T09:32:11.815Z,7.05
2023-01-28T09:34:38.440Z,11.43
2023-01-28T09:37:04.986Z,6.75
2023-01-28T09:39:31.785Z,9.02
2023-01-28T09:42:04.589Z,11.65
2023-01-28T09:44:43.729Z,5.53
2023-01-28T09:47:14.398Z,6.80
2023-01-28T09:49:46.111Z,4.50
2023-01-28T09:52:15.403Z,8.65
2023-01-28T09:54:46.092Z,8.07
2023-01-28T09:57:23.674Z,5.57
2023-01-28T09:59:51.548Z,6.35
2023-01-28T10:02:18.196Z,12.57
2023-01-28T10:05:04.483Z,8.82
2023-01-28T10:07:45.938Z,9.38
2023-01-28T10:10:31.187Z,8.20
2023-01-28T10:13:04.007Z,7.00
2023-01-28T10:15:57.077Z,9.68
2023-01-28T10:18:44.118Z,13.75
2023-01-28T10:21:16.590Z,8.32
2023-01-28T10:23:48.843Z,9.07
2023-01-28T10:26:19.159Z,6.43
2023-01-28T10:28:47.103Z,6.03
2023-01-28T10:31:14.699Z,5.53
2023-01-28T10:33:42.764Z,9.68
2023-01-28T10:36:09.721Z,11.30
2023-01-28T10:38:37.723Z,14.52
2023-01-28T10:41:07.348Z,6.47
2023-01-28T10:43:41.906Z,7.10
2023-01-28T10:46:14.548Z,7.63
2023-01-28T10:48:46.015Z,9.20
2023-01-28T10:51:12.564Z,7.47
2023-01-28T10:53:40.674Z,7.15
2023-01-28T10:56:18.194Z,5.63
2023-01-28T10:58:54.025Z,6.45
2023-01-28T11:01:20.852Z,7.15
2023-01-28T11:03:55.592Z,7.47
2023-01-28T11:06:40.719Z,6.77
2023-01-28T11:09:20.736Z,10.07
2023-01-28T11:11:47.392Z,7.55
2023-01-28T11:14:20.256Z,10.43
2023-01-28T11:16:49.345Z,9.85
2023-01-28T11:19:15.744Z,9.23
2023-01-28T11:21:48.264Z,13.35
2023-01-28T11:24:16.836Z,14.73
2023-01-28T11:26:45.786Z,13.35
2023-01-28T11:29:30.540Z,9.40
2023-01-28T11:31:57.502Z,9.43
2023-01-28T11:34:26.617Z,10.60
2023-01-28T11:36:54.665Z,10.13
2023-01-28T11:39:24.713Z,11.13
2023-01-28T11:41:51.622Z,13.82
2023-01-28T11:44:25.305Z,9.70
2023-01-28T11:46:55.993Z,15.25
2023-01-28T11:49:28.443Z,8.52
2023-01-28T11:52:03.627Z,14.43
2023-01-28T11:54:42.407Z,11.60
2023-01-28T11:57:16.968Z,10.50
2023-01-28T12:00:02.138Z,13.30
2023-01-28T12:02:44.560Z,16.15
2023-01-28T12:05:37.390Z,18.23
2023-01-28T12:08:09.508Z,9.45
2023-01-28T12:10:39.217Z,12.80
2023-01-28T12:13:29.334Z,12.23
2023-01-28T12:16:18.938Z,13.32
2023-01-28T12:19:05.165Z,11.25
2023-01-28T12:21:43.604Z,13.80
2023-01-28T12:24:11.965Z,8.00
2023-01-28T12:26:47.334Z,13.02
2023-01-28T12:29:20.489Z,11.40
2023-01-28T12:32:12.604Z,13.05
2023-01-28T12:34:59.742Z,12.20
2023-01-28T12:37:53.933Z,7.95
2023-01-28T12:40:33.777Z,13.02
2023-01-28T12:43:04.521Z,13.48
2023-01-28T12:45:37.339Z,15.20
2023-01-28T12:48:09.837Z,11.77
2023-01-28T12:51:14.466Z,11.43
2023-01-28T12:53:53.300Z,11.60
2023-01-28T12:56:19.857Z,11.18
2023-01-28T12:58:55.289Z,12.65
2023-01-28T13:03:54.942Z,12.35
2023-01-28T13:06:31.711Z,16.55
2023-01-28T13:09:03.404Z,13.75
2023-01-28T13:11:33.139Z,14.25
2023-01-28T13:14:01.138Z,12.23
2023-01-28T13:16:37.432Z,18.80
2023-01-28T13:19:17.889Z,13.45
2023-01-28T13:21:50.247Z,15.23
2023-01-28T13:24:17.335Z,16.05
2023-01-28T13:26:45.001Z,14.88
2023-01-28T13:29:14.426Z,12.60
2023-01-28T13:31:42.177Z,16.40
2023-01-28T13:34:36.189Z,13.32
2023-01-28T13:37:27.128Z,17.17
2023-01-28T13:40:00.144Z,17.48
2023-01-28T13:42:32.567Z,14.68
2023-01-28T13:45:17.592Z,13.73
2023-01-28T13:47:48.356Z,16.50
2023-01-28T13:50:23.690Z,16.10
2023-01-28T13:53:06.392Z,12.82
2023-01-28T13:55:44.116Z,16.80
2023-01-28T13:58:24.936Z,13.98
2023-01-28T14:01:11.650Z,15.70
2023-01-28T14:03:54.436Z,16.23
2023-01-28T14:06:28.500Z,13.07
2023-01-28T14:09:26.354Z,15.50
2023-01-28T14:12:06.700Z,16.05
2023-01-28T14:14:42.213Z,12.13
2023-01-28T14:17:32.346Z,18.42
2023-01-28T14:19:59.690Z,16.00
2023-01-28T14:22:26.078Z,20.08
2023-01-28T14:24:52.858Z,14.70
2023-01-28T14:27:22.517Z,16.90
2023-01-28T14:30:08.342Z,16.27
2023-01-28T14:32:34.987Z,17.13
2023-01-28T14:35:06.927Z,17.02
2023-01-28T14:37:35.221Z,14.77
2023-01-28T14:40:04.221Z,18.00
2023-01-28T14:42:32.803Z,15.57
2023-01-28T14:45:12.544Z,17.17
2023-01-28T14:47:41.813Z,15.73
2023-01-28T14:50:28.774Z,15.35
2023-01-28T14:53:09.157Z,18.13
2023-01-28T14:55:55.422Z,14.02
2023-01-28T14:58:33.583Z,13.85
2023-01-28T15:01:05.441Z,13.68
2023-01-28T15:03:36.187Z,16.55
2023-01-28T15:06:08.517Z,13.32
2023-01-28T15:08:40.671Z,16.42
2023-01-28T15:11:09.444Z,16.08
2023-01-28T15:13:41.354Z,13.55
2023-01-28T15:16:16.364Z,15.70
2023-01-28T15:19:01.709Z,15.68
2023-01-28T15:21:30.608Z,12.32
2023-01-28T15:24:01.005Z,18.98
2023-01-28T15:26:28.502Z,16.95
2023-01-28T15:28:55.760Z,20.80
2023-01-28T15:31:24.551Z,16.30
2023-01-28T15:34:00.300Z,21.10
2023-01-28T15:36:28.042Z,17.55
2023-01-28T15:38:57.306Z,19.77
2023-01-28T15:41:28.105Z,19.25
2023-01-28T15:43:54.736Z,15.40
2023-01-28T15:46:21.261Z,24.75
2023-01-28T15:48:54.844Z,15.38
2023-01-28T15:51:26.749Z,17.27
2023-01-28T15:53:57.007Z,17.40
2023-01-28T15:56:28.264Z,19.83
2023-01-28T15:58:56.063Z,17.20
2023-01-28T16:01:22.723Z,17.15
2023-01-28T16:04:06.814Z,15.50
2023-01-28T16:06:37.839Z,18.13
2023-01-28T16:09:14.530Z,19.92
2023-01-28T16:11:47.947Z,21.85
2023-01-28T16:14:34.506Z,19.60
2023-01-28T16:17:01.383Z,20.42
2023-01-28T16:19:33.189Z,18.38
2023-01-28T16:21:59.786Z,20.33
2023-01-28T16:24:28.888Z,18.75
2023-01-28T16:26:56.888Z,17.95
2023-01-28T16:29:23.927Z,21.08
2023-01-28T16:31:51.595Z,15.27
2023-01-28T16:34:19.360Z,18.63
2023-01-28T16:36:46.557Z,23.30
2023-01-28T16:39:13.128Z,20.25
2023-01-28T16:41:44.088Z,21.02
2023-01-28T16:44:16.890Z,24.45
2023-01-28T16:46:44.929Z,23.80
2023-01-28T16:49:11.359Z,22.55
2023-01-28T16:51:38.567Z,18.95
2023-01-28T16:54:06.204Z,22.70
2023-01-28T16:56:45.206Z,24.98
2023-01-28T16:59:12.331Z,25.15
2023-01-28T17:01:39.529Z,27.67
2023-01-28T17:04:11.995Z,18.15
2023-01-28T17:06:44.390Z,21.25
2023-01-28T17:09:11.982Z,20.98
2023-01-28T17:11:39.680Z,22.25
2023-01-28T17:14:07.055Z,26.67
2023-01-28T17:16:33.744Z,28.25
2023-01-28T17:19:01.203Z,22.23
2023-01-28T17:21:27.661Z,22.52
2023-01-28T17:23:54.364Z,24.83
2023-01-28T17:26:20.889Z,20.25
2023-01-28T17:28:51.757Z,22.63
2023-01-28T17:31:18.478Z,20.40
2023-01-28T17:33:46.057Z,30.55
2023-01-28T17:36:13.343Z,26.55
2023-01-28T17:38:44.467Z,22.85
2023-01-28T17:41:11.648Z,22.67
2023-01-28T17:43:38.391Z,24.02
2023-01-28T17:46:12.045Z,20.88
2023-01-28T17:48:38.787Z,26.77
2023-01-28T17:51:05.545Z,24.10
2023-01-28T17:53:33.755Z,23.13
2023-01-28T17:56:01.290Z,19.52
2023-01-28T17:58:27.727Z,28.55
2023-01-28T18:00:54.186Z,26.38
2023-01-28T18:03:20.816Z,25.63
2023-01-28T18:05:59.516Z,24.23
2023-01-28T18:08:32.750Z,21.13
2023-01-28T18:10:59.430Z,20.88
2023-01-28T18:13:25.979Z,28.52
2023-01-28T18:15:54.009Z,25.80
2023-01-28T18:21:53.062Z,30.55
2023-01-28T18:24:20.205Z,24.73
2023-01-28T18:26:46.539Z,22.77
2023-01-28T18:29:16.620Z,24.63
2023-01-28T18:31:43.157Z,27.92
2023-01-28T18:34:09.539Z,22.75
2023-01-28T18:36:35.954Z,23.10
2023-01-28T18:39:02.259Z,26.80
2023-01-28T18:41:28.651Z,23.45
2023-01-28T18:43:54.961Z,24.95
2023-01-28T18:46:21.292Z,25.80
2023-01-28T18:48:47.704Z,23.48
2023-01-28T18:51:28.994Z,29.45
2023-01-28T18:53:57.800Z,25.95
2023-01-28T18:56:24.164Z,23.15
2023-01-28T18:58:54.434Z,23.65
2023-01-28T19:01:20.751Z,21.20
2023-01-28T19:03:47.063Z,22.65
2023-01-28T19:06:15.422Z,25.83
2023-01-28T19:08:41.760Z,25.20
2023-01-28T19:11:08.171Z,27.45
2023-01-28T19:13:34.503Z,26.45
2023-01-28T19:16:01.630Z,28.27
2023-01-28T19:18:27.900Z,29.13
2023-01-28T19:20:54.160Z,35.70
2023-01-28T19:23:20.515Z,23.63
2023-01-28T19:25:46.776Z,24.55
2023-01-28T19:28:13.113Z,25.50
2023-01-28T19:30:39.483Z,27.38
2023-01-28T19:33:08.827Z,26.05
2023-01-28T19:35:35.824Z,29.70
2023-01-28T19:38:03.253Z,30.13
2023-01-28T19:40:29.903Z,26.65
2023-01-28T19:42:56.397Z,25.23
2023-01-28T19:45:22.690Z,30.20
2023-01-28T19:47:48.966Z,25.55
2023-01-28T19:50:15.955Z,26.02
2023-01-28T19:52:42.240Z,25.67
2023-01-28T19:55:08.768Z,28.20
2023-01-28T19:57:35.115Z,32.10
2023-01-28T20:00:01.413Z,28.70
2023-01-28T20:02:27.866Z,29.48
2023-01-28T20:05:00.567Z,37.25
2023-01-28T20:07:27.072Z,61.00
2023-01-28T20:09:53.407Z,29.52
2023-01-28T20:12:19.665Z,32.28
2023-01-28T20:14:46.304Z,33.15
2023-01-28T20:17:12.623Z,32.45
2023-01-28T20:19:38.892Z,31.80
2023-01-28T20:22:05.717Z,35.10
2023-01-28T20:24:32.032Z,28.55
2023-01-28T20:26:58.357Z,37.33
2023-01-28T20:29:24.987Z,35.03
2023-01-28T20:32:09.118Z,40.20
2023-01-28T20:34:37.655Z,36.50
2023-01-28T20:37:06.413Z,33.55
2023-01-28T20:39:32.805Z,29.80
2023-01-28T20:41:59.084Z,28.10
2023-01-28T20:44:26.599Z,29.85
2023-01-28T20:46:52.829Z,35.13
2023-01-28T20:49:19.098Z,36.80
2023-01-28T20:51:45.351Z,29.25
2023-01-28T20:54:13.459Z,32.30
2023-01-28T20:56:39.787Z,31.20
2023-01-28T20:59:06.423Z,26.00
2023-01-28T21:01:34.210Z,27.08
2023-01-28T21:04:00.840Z,33.67
2023-01-28T21:06:28.041Z,39.38
2023-01-28T21:08:54.459Z,30.23
2023-01-28T21:11:21.394Z,37.13
2023-01-28T21:13:47.686Z,36.08
2023-01-28T21:16:13.994Z,26.27
2023-01-28T21:18:40.446Z,29.50
2023-01-28T21:21:08.129Z,26.98
2023-01-28T21:23:34.470Z,29.33
2023-01-28T21:26:01.868Z,27.05
2023-01-28T21:28:28.351Z,30.30
2023-01-28T21:30:54.702Z,30.30
2023-01-28T21:33:21.012Z,26.85
2023-01-28T21:35:47.386Z,26.42
2023-01-28T21:38:13.692Z,32.97
2023-01-28T21:40:40.085Z,30.13
2023-01-28T21:43:06.344Z,31.30
2023-01-28T21:45:32.670Z,33.90
2023-01-28T21:47:59.075Z,30.83
2023-01-28T21:50:25.432Z,27.30
2023-01-28T21:52:51.667Z,31.75
2023-01-28T21:55:18.387Z,26.85
2023-01-28T21:57:44.810Z,28.70
2023-01-28T22:00:12.754Z,29.52
2023-01-28T22:02:39.254Z,28.10
2023-01-28T22:05:05.656Z,29.58
2023-01-28T22:07:31.924Z,25.77
2023-01-28T22:09:58.184Z,35.22
2023-01-28T22:12:27.361Z,34.65
2023-01-28T22:14:53.775Z,36.00
2023-01-28T22:17:20.161Z,29.10
2023-01-28T22:19:48.118Z,24.10
2023-01-28T22:22:15.097Z,28.02
2023-01-28T22:24:41.665Z,29.55
2023-01-28T22:27:08.029Z,35.38
2023-01-28T22:29:34.287Z,37.13
2023-01-28T22:32:03.977Z,31.75
2023-01-28T22:34:30.296Z,29.98
2023-01-28T22:36:56.595Z,33.22
2023-01-28T22:39:22.944Z,29.30
2023-01-28T22:41:49.207Z,32.42
2023-01-28T22:44:15.989Z,31.23
2023-01-28T22:46:42.313Z,28.88
2023-01-28T22:49:10.218Z,31.70
2023-01-28T22:51:36.708Z,32.08
2023-01-28T22:54:03.486Z,27.58
2023-01-28T22:56:30.109Z,32.83
2023-01-28T22:59:03.099Z,27.85
2023-01-28T23:01:29.484Z,26.27
2023-01-28T23:03:56.414Z,36.63
2023-01-28T23:06:24.396Z,31.60
2023-01-28T23:08:51.602Z,27.35
2023-01-28T23:11:25.273Z,35.78
2023-01-28T23:14:10.884Z,30.55
2023-01-28T23:16:55.675Z,36.10
2023-01-28T23:19:40.787Z,28.80
2023-01-28T23:22:30.677Z,28.17
2023-01-28T23:24:56.998Z,28.45
2023-01-28T23:27:23.401Z,30.23
2023-01-28T23:29:49.657Z,29.45
2023-01-28T23:32:15.987Z,28.67
2023-01-28T23:34:44.498Z,26.58
2023-01-28T23:37:12.794Z,29.00
2023-01-28T23:39:39.942Z,31.40
2023-01-28T23:42:16.637Z,37.55
2023-01-28T23:44:43.245Z,25.58
2023-01-28T23:47:10.133Z,28.63
2023-01-28T23:49:36.542Z,35.63
2023-01-28T23:52:03.840Z,34.20
2023-01-28T23:54:30.267Z,29.38
2023-01-28T23:56:56.541Z,32.70
2023-01-28T23:59:22.828Z,33.83
